createdAt,value
2019-05-02T00:02:07.038Z,122.92
2019-05-02T00:04:36.513Z,116.88
2019-05-02T00:07:06.694Z,114.42
2019-05-02T00:09:37.307Z,156.93
2019-05-02T00:12:08.616Z,119.75
2019-05-02T00:14:38.766Z,111.37
2019-05-02T00:17:08.336Z,107.92
2019-05-02T00:19:37.824Z,116.73
2019-05-02T00:22:12.180Z,129.53
2019-05-02T00:24:41.051Z,125.25
2019-05-02T00:27:10.759Z,123.95
2019-05-02T00:29:40.141Z,124.67
2019-05-02T00:32:09.748Z,140.77
2019-05-02T00:34:39.074Z,128.32
2019-05-02T00:37:08.519Z,128.60
2019-05-02T00:39:37.905Z,131.75
2019-05-02T00:42:12.847Z,144.15
2019-05-02T00:44:42.108Z,152.65
2019-05-02T00:47:13.723Z,141.88
2019-05-02T00:49:43.072Z,157.00
2019-05-02T00:52:12.574Z,158.70
2019-05-02T00:54:41.901Z,169.20
2019-05-02T00:57:14.999Z,170.02
2019-05-02T00:59:43.511Z,169.30
2019-05-02T01:02:17.434Z,180.85
2019-05-02T01:04:49.671Z,175.72
2019-05-02T01:07:20.511Z,185.52
2019-05-02T01:09:50.404Z,196.93
2019-05-02T01:12:26.692Z,196.28
2019-05-02T01:14:50.787Z,194.50
2019-05-02T01:17:20.159Z,194.17
2019-05-02T01:19:51.547Z,184.13
2019-05-02T01:22:20.619Z,188.07
2019-05-02T01:24:49.943Z,170.22
2019-05-02T01:27:41.130Z,178.02
2019-05-02T01:30:19.307Z,173.78
2019-05-02T01:32:50.278Z,186.57
2019-05-02T01:35:27.049Z,183.68
2019-05-02T01:38:14.789Z,183.82
2019-05-02T01:40:48.044Z,183.52
2019-05-02T01:43:30.446Z,188.93
2019-05-02T01:45:59.924Z,180.22
2019-05-02T01:48:29.700Z,178.85
2019-05-02T01:50:59.000Z,184.28
2019-05-02T01:53:34.040Z,190.68
2019-05-02T01:55:59.517Z,198.97
2019-05-02T01:58:28.944Z,204.82
2019-05-02T02:00:58.311Z,216.70
2019-05-02T02:03:27.585Z,212.27
2019-05-02T02:05:58.004Z,201.32
2019-05-02T02:08:32.315Z,212.32
2019-05-02T02:10:58.436Z,203.45
2019-05-02T02:13:31.272Z,227.28
2019-05-02T02:16:04.448Z,225.13
2019-05-02T02:18:33.521Z,266.45
2019-05-02T02:21:07.995Z,238.32
2019-05-02T02:23:39.113Z,234.77
2019-05-02T02:26:12.048Z,234.65
2019-05-02T02:28:41.073Z,209.67
2019-05-02T02:31:10.387Z,212.65
2019-05-02T02:33:41.127Z,208.68
2019-05-02T02:36:10.736Z,240.52
2019-05-02T02:38:40.010Z,221.53
2019-05-02T02:41:13.224Z,234.55
2019-05-02T02:43:40.545Z,205.92
2019-05-02T02:46:17.165Z,208.85
2019-05-02T02:48:46.441Z,218.70
2019-05-02T02:51:23.333Z,204.53
2019-05-02T02:53:46.720Z,205.87
2019-05-02T02:56:16.099Z,216.02
2019-05-02T02:58:47.664Z,213.47
2019-05-02T03:01:27.570Z,220.22
2019-05-02T03:03:47.588Z,233.90
2019-05-02T03:06:16.933Z,242.68
2019-05-02T03:08:49.231Z,250.10
2019-05-02T03:11:23.513Z,259.43
2019-05-02T03:14:09.058Z,263.23
2019-05-02T03:16:46.195Z,272.52
2019-05-02T03:21:39.408Z,239.15
2019-05-02T03:24:08.739Z,239.08
2019-05-02T03:26:38.037Z,264.23
2019-05-02T03:29:07.372Z,235.30
2019-05-02T03:31:37.111Z,234.77
2019-05-02T03:34:06.435Z,221.32
2019-05-02T03:36:37.199Z,243.48
2019-05-02T03:39:14.845Z,242.77
2019-05-02T03:41:38.338Z,226.32
2019-05-02T03:44:12.420Z,237.82
2019-05-02T03:46:39.257Z,241.35
2019-05-02T03:49:09.691Z,242.62
2019-05-02T03:51:39.505Z,247.40
2019-05-02T03:54:10.448Z,262.65
2019-05-02T03:56:44.839Z,262.10
2019-05-02T03:59:11.516Z,259.20
2019-05-02T04:01:41.846Z,263.45
2019-05-02T04:04:14.064Z,266.98
2019-05-02T04:06:43.347Z,265.57
2019-05-02T04:09:32.075Z,231.00
2019-05-02T04:11:58.610Z,239.80
2019-05-02T04:14:37.572Z,238.75
2019-05-02T04:16:59.804Z,224.85
2019-05-02T04:19:34.829Z,235.78
2019-05-02T04:22:01.890Z,238.10
2019-05-02T04:24:33.544Z,253.10
2019-05-02T04:27:02.860Z,245.20
2019-05-02T04:29:33.158Z,231.80
2019-05-02T04:32:04.486Z,244.32
2019-05-02T04:34:33.719Z,252.22
2019-05-02T04:37:04.051Z,251.42
2019-05-02T04:39:33.689Z,250.78
2019-05-02T04:42:13.014Z,269.77
2019-05-02T04:44:40.768Z,236.52
2019-05-02T04:47:11.099Z,234.50
2019-05-02T04:49:39.018Z,223.78
2019-05-02T04:52:11.642Z,218.63
2019-05-02T04:54:39.052Z,200.38
2019-05-02T04:57:08.818Z,200.90
2019-05-02T04:59:39.545Z,191.25
2019-05-02T05:02:09.501Z,188.32
2019-05-02T05:04:46.079Z,183.85
2019-05-02T05:07:09.845Z,183.60
2019-05-02T05:09:40.200Z,176.72
2019-05-02T05:12:12.541Z,176.55
2019-05-02T05:14:43.186Z,156.85
2019-05-02T05:17:13.987Z,167.50
2019-05-02T05:19:43.299Z,154.07
2019-05-02T05:22:12.615Z,151.65
2019-05-02T05:24:43.566Z,136.88
2019-05-02T05:27:18.160Z,133.47
2019-05-02T05:29:45.997Z,134.25
2019-05-02T05:32:15.410Z,127.40
2019-05-02T05:34:44.886Z,126.62
2019-05-02T05:37:17.131Z,120.53
2019-05-02T05:39:50.923Z,123.58
2019-05-02T05:42:17.846Z,117.03
2019-05-02T05:44:48.362Z,108.92
2019-05-02T05:47:21.291Z,110.35
2019-05-02T05:49:52.405Z,101.87
2019-05-02T05:52:20.187Z,99.10
2019-05-02T05:54:49.532Z,97.67
2019-05-02T05:57:21.122Z,104.05
2019-05-02T05:59:49.946Z,100.22
2019-05-02T06:02:19.303Z,104.45
2019-05-02T06:04:50.269Z,96.92
2019-05-02T06:07:20.058Z,102.95
2019-05-02T06:09:49.724Z,100.07
2019-05-02T06:12:19.091Z,98.65
2019-05-02T06:14:49.950Z,97.53
2019-05-02T06:17:23.122Z,107.22
2019-05-02T06:19:53.558Z,106.85
2019-05-02T06:22:24.682Z,103.83
2019-05-02T06:24:55.782Z,109.87
2019-05-02T06:27:26.114Z,110.50
2019-05-02T06:29:57.323Z,109.17
2019-05-02T06:32:26.869Z,106.50
2019-05-02T06:34:56.377Z,97.82
2019-05-02T06:37:26.340Z,101.62
2019-05-02T06:39:56.093Z,107.43
2019-05-02T06:42:27.707Z,110.22
2019-05-02T06:44:59.700Z,110.12
2019-05-02T06:47:27.526Z,109.70
2019-05-02T06:50:01.068Z,109.95
2019-05-02T06:52:32.870Z,117.17
2019-05-02T06:55:00.296Z,120.72
2019-05-02T06:57:29.706Z,112.17
2019-05-02T06:59:59.103Z,119.22
2019-05-02T07:02:33.562Z,112.45
2019-05-02T07:04:59.665Z,102.92
2019-05-02T07:07:31.064Z,101.22
2019-05-02T07:10:00.122Z,101.67
2019-05-02T07:12:29.596Z,105.30
2019-05-02T07:15:01.558Z,95.92
2019-05-02T07:17:36.453Z,91.42
2019-05-02T07:20:06.761Z,88.92
2019-05-02T07:22:38.781Z,92.40
2019-05-02T07:25:08.995Z,84.28
2019-05-02T07:27:39.357Z,82.15
2019-05-02T07:30:09.251Z,84.47
2019-05-02T07:32:38.662Z,80.20
2019-05-02T07:35:08.332Z,83.30
2019-05-02T07:37:37.694Z,81.10
2019-05-02T07:40:12.119Z,80.90
2019-05-02T07:42:41.892Z,80.00
2019-05-02T07:45:10.832Z,77.85
2019-05-02T07:47:42.369Z,83.03
2019-05-02T07:50:12.051Z,78.72
2019-05-02T07:52:41.595Z,75.65
2019-05-02T07:55:11.297Z,75.08
2019-05-02T07:57:41.476Z,77.30
2019-05-02T08:00:14.259Z,71.90
2019-05-02T08:05:15.757Z,64.87
2019-05-02T08:07:43.930Z,59.65
2019-05-02T08:10:16.413Z,59.85
2019-05-02T08:12:44.992Z,55.92
2019-05-02T08:15:15.302Z,52.43
2019-05-02T08:17:53.338Z,59.50
2019-05-02T08:20:19.266Z,56.85
2019-05-02T08:22:50.422Z,57.73
2019-05-02T08:25:20.262Z,59.93
2019-05-02T08:27:51.251Z,66.95
2019-05-02T08:30:24.764Z,66.33
2019-05-02T08:32:55.353Z,67.10
2019-05-02T08:35:27.671Z,65.60
2019-05-02T08:37:56.249Z,66.12
2019-05-02T08:40:25.735Z,68.05
2019-05-02T08:42:55.027Z,70.03
2019-05-02T08:45:24.335Z,71.90
2019-05-02T08:47:53.832Z,67.85
2019-05-02T08:50:27.076Z,70.00
2019-05-02T08:52:54.385Z,65.57
2019-05-02T08:55:23.685Z,67.85
2019-05-02T08:57:52.963Z,71.22
2019-05-02T09:00:22.396Z,73.97
2019-05-02T09:02:51.696Z,76.85
2019-05-02T09:05:21.174Z,78.97
2019-05-02T09:07:50.709Z,84.40
2019-05-02T09:10:20.171Z,89.20
2019-05-02T09:12:49.625Z,85.95
2019-05-02T09:15:19.000Z,92.37
2019-05-02T09:17:52.890Z,103.40
2019-05-02T09:20:23.560Z,102.78
2019-05-02T09:22:55.949Z,108.90
2019-05-02T09:25:23.642Z,112.00
2019-05-02T09:27:53.148Z,120.20
2019-05-02T09:30:25.737Z,119.90
2019-05-02T09:32:57.098Z,120.28
2019-05-02T09:35:24.752Z,120.72
2019-05-02T09:37:54.057Z,116.28
2019-05-02T09:40:23.368Z,120.05
2019-05-02T09:42:57.648Z,122.60
2019-05-02T09:45:27.725Z,117.53
2019-05-02T09:48:04.518Z,117.25
2019-05-02T09:50:31.376Z,112.03
2019-05-02T09:53:01.730Z,117.77
2019-05-02T09:55:31.788Z,127.72
2019-05-02T09:58:02.702Z,134.00
2019-05-02T10:00:41.940Z,143.35
2019-05-02T10:03:12.072Z,144.95
2019-05-02T10:05:43.057Z,140.95
2019-05-02T10:08:13.938Z,151.42
2019-05-02T10:10:45.841Z,149.10
2019-05-02T10:13:14.876Z,147.70
2019-05-02T10:15:44.415Z,151.93
2019-05-02T10:18:14.898Z,159.00
2019-05-02T10:20:45.615Z,155.53
2019-05-02T10:23:19.499Z,156.18
2019-05-02T10:25:47.006Z,153.10
2019-05-02T10:28:16.458Z,160.28
2019-05-02T10:30:47.260Z,157.75
2019-05-02T10:33:16.764Z,149.47
2019-05-02T10:35:47.738Z,162.80
2019-05-02T10:38:19.722Z,162.47
2019-05-02T10:40:54.563Z,154.23
2019-05-02T10:43:22.114Z,149.45
2019-05-02T10:45:56.470Z,150.03
2019-05-02T10:48:28.170Z,159.48
2019-05-02T10:50:56.804Z,164.95
2019-05-02T10:53:26.295Z,163.75
2019-05-02T10:55:55.617Z,165.70
2019-05-02T10:58:32.009Z,175.22
2019-05-02T11:00:57.647Z,171.80
2019-05-02T11:03:32.009Z,178.70
2019-05-02T11:06:07.446Z,184.05
2019-05-02T11:08:36.607Z,191.60
2019-05-02T11:11:06.231Z,179.93
2019-05-02T11:13:38.172Z,190.10
2019-05-02T11:16:12.401Z,185.67
2019-05-02T11:18:59.631Z,172.43
2019-05-02T11:21:29.168Z,167.85
2019-05-02T11:23:58.538Z,164.25
2019-05-02T11:26:29.648Z,136.15
2019-05-02T11:28:58.959Z,137.72
2019-05-02T11:31:28.393Z,136.45
2019-05-02T11:33:57.677Z,121.60
2019-05-02T11:36:27.505Z,119.25
2019-05-02T11:39:09.064Z,113.75
2019-05-02T11:41:29.101Z,126.50
2019-05-02T11:43:59.903Z,116.90
2019-05-02T11:46:29.324Z,129.32
2019-05-02T11:48:58.807Z,126.12
2019-05-02T11:51:28.110Z,124.53
2019-05-02T11:53:59.229Z,131.32
2019-05-02T11:56:28.741Z,132.40
2019-05-02T11:58:59.309Z,118.47
2019-05-02T12:01:37.134Z,97.37
2019-05-02T12:03:59.861Z,108.67
2019-05-02T12:06:29.244Z,104.35
2019-05-02T12:08:58.576Z,98.45
2019-05-02T12:11:27.895Z,79.50
2019-05-02T12:13:57.228Z,76.22
2019-05-02T12:16:27.942Z,72.65
2019-05-02T12:19:08.471Z,62.75
2019-05-02T12:21:28.791Z,63.23
2019-05-02T12:23:58.096Z,58.87
2019-05-02T12:26:27.685Z,46.75
2019-05-02T12:28:58.613Z,47.98
2019-05-02T12:31:32.480Z,41.15
2019-05-02T12:34:02.896Z,43.63
2019-05-02T12:36:33.547Z,39.25
2019-05-02T12:39:04.299Z,35.00
2019-05-02T12:41:33.810Z,31.27
2019-05-02T12:44:03.108Z,34.05
2019-05-02T12:46:32.520Z,30.40
2019-05-02T12:49:02.860Z,28.77
2019-05-02T12:51:32.628Z,25.37
2019-05-02T12:54:02.447Z,26.27
2019-05-02T12:56:32.510Z,30.20
2019-05-02T12:59:02.509Z,24.72
2019-05-02T13:01:33.027Z,24.87
2019-05-02T13:04:07.379Z,25.82
2019-05-02T13:06:37.313Z,22.75
2019-05-02T13:09:09.837Z,27.13
2019-05-02T13:11:47.937Z,23.47
2019-05-02T13:14:19.852Z,23.02
2019-05-02T13:16:53.446Z,25.55
2019-05-02T13:19:23.683Z,22.10
2019-05-02T13:22:12.485Z,25.35
2019-05-02T13:24:46.946Z,27.85
2019-05-02T13:27:17.232Z,35.45
2019-05-02T13:29:47.415Z,36.53
2019-05-02T13:32:32.157Z,39.30
2019-05-02T13:35:09.191Z,40.92
2019-05-02T13:37:38.714Z,40.80
2019-05-02T13:40:12.414Z,42.20
2019-05-02T13:42:41.948Z,49.85
2019-05-02T13:45:13.266Z,51.92
2019-05-02T13:47:42.698Z,56.63
2019-05-02T13:50:12.977Z,61.55
2019-05-02T13:52:45.243Z,67.17
2019-05-02T13:55:15.358Z,68.40
2019-05-02T13:57:46.875Z,71.55
2019-05-02T14:00:18.182Z,64.55
2019-05-02T14:02:47.510Z,67.03
2019-05-02T14:05:16.980Z,64.17
2019-05-02T14:07:55.576Z,61.88
2019-05-02T14:10:23.126Z,63.75
2019-05-02T14:13:00.603Z,61.00
2019-05-02T14:15:32.406Z,69.45
2019-05-02T14:18:02.928Z,65.72
2019-05-02T14:20:33.056Z,68.92
2019-05-02T14:23:02.626Z,67.82
2019-05-02T14:25:32.268Z,65.10
2019-05-02T14:28:02.915Z,59.65
2019-05-02T14:30:40.044Z,57.00
2019-05-02T14:33:08.145Z,62.70
2019-05-02T14:35:37.900Z,52.55
2019-05-02T14:38:08.149Z,52.62
2019-05-02T14:40:55.776Z,53.83
2019-05-02T14:43:44.485Z,53.08
2019-05-02T14:46:13.557Z,53.17
2019-05-02T14:48:45.223Z,63.55
2019-05-02T14:51:16.773Z,53.75
2019-05-02T14:53:46.000Z,53.25
2019-05-02T14:56:16.936Z,55.95
2019-05-02T14:58:47.742Z,53.10
2019-05-02T15:01:21.523Z,59.98
2019-05-02T15:03:48.138Z,57.62
2019-05-02T15:06:17.596Z,57.75
2019-05-02T15:08:46.966Z,50.78
2019-05-02T15:11:16.238Z,49.85
2019-05-02T15:13:45.552Z,48.40
2019-05-02T15:16:17.690Z,45.33
2019-05-02T15:18:47.557Z,45.28
2019-05-02T15:21:22.858Z,44.73
2019-05-02T15:23:54.336Z,50.40
2019-05-02T15:26:26.404Z,43.40
2019-05-02T15:28:54.362Z,43.00
2019-05-02T15:31:28.435Z,41.42
2019-05-02T15:34:01.559Z,47.00
2019-05-02T15:41:29.474Z,37.35
2019-05-02T15:43:58.765Z,37.58
2019-05-02T15:46:28.382Z,31.80
2019-05-02T15:49:01.737Z,29.57
2019-05-02T15:51:28.986Z,30.35
2019-05-02T15:54:08.111Z,32.05
2019-05-02T15:56:35.738Z,26.70
2019-05-02T15:59:06.435Z,27.40
2019-05-02T16:01:41.598Z,30.00
2019-05-02T16:06:38.984Z,19.48
2019-05-02T16:09:08.866Z,14.03
2019-05-02T16:11:39.735Z,17.90
2019-05-02T16:14:09.047Z,14.95
2019-05-02T16:16:41.868Z,11.70
2019-05-02T16:19:14.659Z,13.03
2019-05-02T16:21:42.742Z,11.63
2019-05-02T16:24:19.446Z,13.13
2019-05-02T16:26:56.612Z,12.90
2019-05-02T16:29:28.454Z,13.72
2019-05-02T16:32:03.160Z,11.00
2019-05-02T16:34:35.436Z,10.13
2019-05-02T16:37:16.513Z,9.43
2019-05-02T16:39:49.711Z,11.20
2019-05-02T16:42:14.791Z,10.65
2019-05-02T16:44:44.629Z,10.95
2019-05-02T16:47:14.166Z,12.58
2019-05-02T16:49:47.872Z,11.33
2019-05-02T16:52:16.197Z,12.33
2019-05-02T16:54:45.870Z,11.48
2019-05-02T16:57:17.385Z,11.88
2019-05-02T16:59:47.428Z,12.20
2019-05-02T17:02:16.908Z,9.03
2019-05-02T17:04:46.222Z,11.08
2019-05-02T17:07:17.195Z,12.13
2019-05-02T17:10:08.502Z,10.13
2019-05-02T17:12:37.253Z,10.85
2019-05-02T17:15:31.106Z,10.45
2019-05-02T17:18:05.024Z,11.35
2019-05-02T17:20:31.972Z,12.13
2019-05-02T17:23:03.362Z,11.35
2019-05-02T17:25:32.462Z,8.30
2019-05-02T17:28:06.970Z,11.88
2019-05-02T17:30:39.009Z,7.95
2019-05-02T17:33:07.101Z,10.93
2019-05-02T17:35:35.934Z,12.98
2019-05-02T17:38:05.482Z,11.05
2019-05-02T17:40:34.802Z,11.50
2019-05-02T17:43:06.914Z,10.13
2019-05-02T17:45:38.491Z,13.28
2019-05-02T17:48:15.267Z,9.25
2019-05-02T17:50:59.181Z,10.83
2019-05-02T17:53:26.845Z,10.45
2019-05-02T17:55:56.224Z,9.40
2019-05-02T17:58:25.505Z,10.85
2019-05-02T18:00:57.244Z,11.43
2019-05-02T18:03:30.873Z,10.08
2019-05-02T18:05:58.524Z,13.75
2019-05-02T18:08:27.917Z,15.75
2019-05-02T18:11:00.117Z,10.25
2019-05-02T18:13:29.183Z,11.03
2019-05-02T18:15:59.421Z,10.75
2019-05-02T18:18:28.785Z,11.60
2019-05-02T18:20:58.234Z,13.72
2019-05-02T18:23:27.775Z,9.15
2019-05-02T18:26:04.547Z,9.75
2019-05-02T18:28:29.834Z,8.25
2019-05-02T18:31:04.527Z,11.25
2019-05-02T18:33:30.203Z,10.48
2019-05-02T18:35:59.466Z,13.75
2019-05-02T18:38:28.841Z,8.78
2019-05-02T18:41:00.358Z,6.80
2019-05-02T18:43:31.487Z,13.40
2019-05-02T18:46:05.934Z,11.68
2019-05-02T18:48:31.962Z,7.40
2019-05-02T18:51:01.641Z,13.78
2019-05-02T18:53:32.670Z,9.08
2019-05-02T18:56:03.629Z,8.03
2019-05-02T18:58:36.347Z,8.95
2019-05-02T19:01:08.499Z,9.68
2019-05-02T19:03:36.494Z,9.18
2019-05-02T19:06:05.804Z,14.33
2019-05-02T19:08:45.290Z,11.78
2019-05-02T19:11:11.985Z,10.95
2019-05-02T19:13:42.754Z,10.65
2019-05-02T19:16:10.008Z,9.33
2019-05-02T19:18:39.340Z,8.83
2019-05-02T19:21:09.010Z,9.98
2019-05-02T19:23:38.324Z,9.23
2019-05-02T19:26:15.055Z,11.60
2019-05-02T19:28:42.774Z,9.20
2019-05-02T19:33:42.538Z,9.95
2019-05-02T19:36:11.363Z,8.83
2019-05-02T19:38:42.804Z,8.50
2019-05-02T19:41:12.452Z,10.30
2019-05-02T19:43:49.452Z,10.28
2019-05-02T19:46:12.919Z,6.37
2019-05-02T19:48:43.014Z,9.40
2019-05-02T19:51:18.644Z,11.15
2019-05-02T19:53:44.592Z,14.87
2019-05-02T19:56:13.903Z,8.30
2019-05-02T19:58:46.614Z,9.33
2019-05-02T20:01:17.508Z,11.00
2019-05-02T20:03:45.528Z,9.13
2019-05-02T20:06:14.983Z,13.08
2019-05-02T20:08:44.394Z,13.05
2019-05-02T20:11:13.713Z,7.12
2019-05-02T20:13:43.096Z,8.58
2019-05-02T20:16:31.906Z,11.43
2019-05-02T20:19:01.986Z,12.50
2019-05-02T20:21:38.749Z,14.10
2019-05-02T20:24:09.284Z,12.43
2019-05-02T20:26:39.002Z,20.43
2019-05-02T20:29:08.464Z,17.48
2019-05-02T20:31:37.850Z,17.10
2019-05-02T20:34:07.196Z,16.57
2019-05-02T20:36:36.497Z,21.45
2019-05-02T20:39:07.388Z,16.23
2019-05-02T20:41:37.349Z,15.85
2019-05-02T20:44:06.713Z,16.62
2019-05-02T20:46:36.081Z,17.50
2019-05-02T20:49:05.655Z,20.32
2019-05-02T20:51:36.557Z,14.83
2019-05-02T20:54:06.000Z,16.90
2019-05-02T20:56:35.538Z,15.00
2019-05-02T20:59:05.786Z,13.80
2019-05-02T21:01:35.123Z,20.10
2019-05-02T21:04:04.428Z,18.80
2019-05-02T21:06:40.776Z,14.47
2019-05-02T21:09:08.518Z,15.20
2019-05-02T21:11:41.834Z,16.53
2019-05-02T21:14:12.708Z,15.80
2019-05-02T21:16:42.034Z,14.53
2019-05-02T21:19:12.367Z,14.23
2019-05-02T21:21:42.638Z,15.48
2019-05-02T21:24:12.108Z,17.25
2019-05-02T21:26:42.126Z,16.05
2019-05-02T21:29:12.129Z,14.80
2019-05-02T21:31:42.555Z,15.13
2019-05-02T21:34:13.022Z,16.05
2019-05-02T21:36:42.612Z,19.15
2019-05-02T21:39:12.469Z,17.85
2019-05-02T21:41:42.418Z,13.40
2019-05-02T21:44:13.328Z,16.52
2019-05-02T21:46:42.666Z,17.90
2019-05-02T21:49:14.101Z,18.42
2019-05-02T21:51:51.803Z,18.40
2019-05-02T21:54:26.908Z,19.00
2019-05-02T21:57:02.605Z,18.62
2019-05-02T21:59:32.110Z,17.27
2019-05-02T22:02:02.486Z,16.30
2019-05-02T22:04:31.942Z,15.90
2019-05-02T22:07:01.632Z,17.15
2019-05-02T22:09:32.380Z,17.92
2019-05-02T22:12:01.941Z,13.80
2019-05-02T22:14:32.834Z,18.70
2019-05-02T22:17:02.848Z,17.55
2019-05-02T22:19:32.432Z,18.23
2019-05-02T22:22:01.830Z,17.92
2019-05-02T22:24:31.306Z,14.93
2019-05-02T22:27:01.957Z,15.68
2019-05-02T22:29:32.381Z,21.25
2019-05-02T22:32:03.008Z,19.00
2019-05-02T22:34:33.653Z,22.22
2019-05-02T22:37:04.518Z,17.70
2019-05-02T22:39:38.227Z,19.37
2019-05-02T22:42:07.543Z,14.90
2019-05-02T22:44:36.906Z,18.90
2019-05-02T22:47:06.204Z,16.60
2019-05-02T22:49:35.534Z,18.45
2019-05-02T22:52:04.863Z,22.98
2019-05-02T22:54:34.179Z,16.82
2019-05-02T22:57:03.466Z,25.62
2019-05-02T22:59:33.654Z,14.78
2019-05-02T23:02:02.955Z,20.10
2019-05-02T23:04:33.514Z,21.55
2019-05-02T23:07:02.828Z,21.27
2019-05-02T23:09:32.157Z,22.70
2019-05-02T23:12:02.855Z,23.92
2019-05-02T23:14:32.687Z,18.35
2019-05-02T23:17:02.339Z,19.87
2019-05-02T23:19:31.898Z,17.95
2019-05-02T23:22:02.059Z,21.75
2019-05-02T23:24:38.669Z,15.88
2019-05-02T23:27:22.424Z,17.57
2019-05-02T23:29:52.065Z,26.68
2019-05-02T23:32:23.627Z,23.15
2019-05-02T23:34:52.914Z,19.27
2019-05-02T23:37:22.307Z,16.93
2019-05-02T23:39:52.243Z,17.90
2019-05-02T23:42:21.989Z,20.25
2019-05-02T23:44:51.916Z,21.80
2019-05-02T23:47:22.505Z,14.87
2019-05-02T23:49:52.204Z,18.80
2019-05-02T23:52:22.446Z,13.53
2019-05-02T23:54:53.046Z,20.52
2019-05-02T23:57:22.948Z,14.55
2019-05-02T23:59:52.418Z,19.23
